sensor_id;sensor_type;location;lat;lon;timestamp;P1;durP1;ratioP1;P2;durP2;ratioP2
61013;SDS011;46899;47.542;19.082;2024-02-26T00:01:19;22.57;;;14.97;;
61013;SDS011;46899;47.542;19.082;2024-02-26T00:04:35;20.92;;;14.70;;
61013;SDS011;46899;47.542;19.082;2024-02-26T00:07:49;19.30;;;13.82;;
61013;SDS011;46899;47.542;19.082;2024-02-26T00:10:58;20.85;;;13.77;;
61013;SDS011;46899;47.542;19.082;2024-02-26T00:14:10;18.70;;;13.43;;
61013;SDS011;46899;47.542;19.082;2024-02-26T00:17:25;19.05;;;13.50;;
61013;SDS011;46899;47.542;19.082;2024-02-26T00:20:38;20.92;;;13.43;;
61013;SDS011;46899;47.542;19.082;2024-02-26T00:23:50;18.92;;;12.82;;
61013;SDS011;46899;47.542;19.082;2024-02-26T00:27:05;21.35;;;14.15;;
61013;SDS011;46899;47.542;19.082;2024-02-26T00:30:21;19.30;;;13.05;;
61013;SDS011;46899;47.542;19.082;2024-02-26T00:33:32;19.02;;;12.75;;
61013;SDS011;46899;47.542;19.082;2024-02-26T00:36:48;18.77;;;12.63;;
61013;SDS011;46899;47.542;19.082;2024-02-26T00:40:01;21.37;;;13.88;;
61013;SDS011;46899;47.542;19.082;2024-02-26T00:43:19;19.27;;;12.43;;
61013;SDS011;46899;47.542;19.082;2024-02-26T00:46:34;18.90;;;12.43;;
61013;SDS011;46899;47.542;19.082;2024-02-26T00:49:48;18.37;;;11.32;;
61013;SDS011;46899;47.542;19.082;2024-02-26T00:52:59;20.80;;;12.37;;
61013;SDS011;46899;47.542;19.082;2024-02-26T00:56:15;18.77;;;12.35;;
61013;SDS011;46899;47.542;19.082;2024-02-26T00:59:34;17.35;;;11.85;;
61013;SDS011;46899;47.542;19.082;2024-02-26T01:02:47;20.15;;;12.35;;
61013;SDS011;46899;47.542;19.082;2024-02-26T01:06:01;16.35;;;11.27;;
61013;SDS011;46899;47.542;19.082;2024-02-26T01:09:16;16.83;;;11.63;;
61013;SDS011;46899;47.542;19.082;2024-02-26T01:12:27;17.60;;;11.25;;
61013;SDS011;46899;47.542;19.082;2024-02-26T01:15:43;17.58;;;11.45;;
61013;SDS011;46899;47.542;19.082;2024-02-26T01:18:57;19.62;;;11.68;;
61013;SDS011;46899;47.542;19.082;2024-02-26T01:22:09;16.83;;;12.05;;
61013;SDS011;46899;47.542;19.082;2024-02-26T01:25:20;18.25;;;11.73;;
61013;SDS011;46899;47.542;19.082;2024-02-26T01:28:39;18.05;;;11.43;;
61013;SDS011;46899;47.542;19.082;2024-02-26T01:31:49;17.60;;;12.27;;
61013;SDS011;46899;47.542;19.082;2024-02-26T01:35:04;22.52;;;14.23;;
61013;SDS011;46899;47.542;19.082;2024-02-26T01:38:21;23.10;;;15.20;;
61013;SDS011;46899;47.542;19.082;2024-02-26T01:41:36;20.83;;;13.77;;
61013;SDS011;46899;47.542;19.082;2024-02-26T01:44:50;23.23;;;15.20;;
61013;SDS011;46899;47.542;19.082;2024-02-26T01:48:02;21.48;;;14.75;;
61013;SDS011;46899;47.542;19.082;2024-02-26T01:51:14;22.23;;;14.98;;
61013;SDS011;46899;47.542;19.082;2024-02-26T01:54:31;23.05;;;15.50;;
61013;SDS011;46899;47.542;19.082;2024-02-26T01:57:46;22.08;;;15.25;;
61013;SDS011;46899;47.542;19.082;2024-02-26T02:01:02;22.70;;;14.90;;
61013;SDS011;46899;47.542;19.082;2024-02-26T02:04:16;19.98;;;14.35;;
61013;SDS011;46899;47.542;19.082;2024-02-26T02:07:34;22.87;;;15.07;;
61013;SDS011;46899;47.542;19.082;2024-02-26T02:10:53;22.05;;;14.57;;
61013;SDS011;46899;47.542;19.082;2024-02-26T02:14:09;21.90;;;15.38;;
61013;SDS011;46899;47.542;19.082;2024-02-26T02:17:24;23.40;;;14.60;;
61013;SDS011;46899;47.542;19.082;2024-02-26T02:20:37;22.70;;;14.90;;
61013;SDS011;46899;47.542;19.082;2024-02-26T02:23:54;24.20;;;14.80;;
61013;SDS011;46899;47.542;19.082;2024-02-26T02:27:09;20.45;;;14.15;;
61013;SDS011;46899;47.542;19.082;2024-02-26T02:30:30;22.80;;;13.85;;
61013;SDS011;46899;47.542;19.082;2024-02-26T02:33:41;21.45;;;14.40;;
61013;SDS011;46899;47.542;19.082;2024-02-26T02:37:01;23.42;;;14.75;;
61013;SDS011;46899;47.542;19.082;2024-02-26T02:40:19;22.15;;;14.85;;
61013;SDS011;46899;47.542;19.082;2024-02-26T02:43:35;23.15;;;14.35;;
61013;SDS011;46899;47.542;19.082;2024-02-26T02:46:51;20.65;;;14.20;;
61013;SDS011;46899;47.542;19.082;2024-02-26T02:50:05;23.58;;;14.82;;
61013;SDS011;46899;47.542;19.082;2024-02-26T02:53:18;21.48;;;14.23;;
61013;SDS011;46899;47.542;19.082;2024-02-26T02:56:35;21.40;;;14.60;;
61013;SDS011;46899;47.542;19.082;2024-02-26T02:59:55;25.10;;;14.45;;
61013;SDS011;46899;47.542;19.082;2024-02-26T03:03:09;21.87;;;14.50;;
61013;SDS011;46899;47.542;19.082;2024-02-26T03:09:35;21.33;;;14.60;;
61013;SDS011;46899;47.542;19.082;2024-02-26T03:12:49;24.63;;;15.45;;
61013;SDS011;46899;47.542;19.082;2024-02-26T03:16:07;23.55;;;15.20;;
61013;SDS011;46899;47.542;19.082;2024-02-26T03:19:19;22.10;;;14.73;;
61013;SDS011;46899;47.542;19.082;2024-02-26T03:22:33;22.45;;;14.70;;
61013;SDS011;46899;47.542;19.082;2024-02-26T03:25:50;22.75;;;14.68;;
61013;SDS011;46899;47.542;19.082;2024-02-26T03:29:12;23.38;;;14.80;;
61013;SDS011;46899;47.542;19.082;2024-02-26T03:32:34;23.95;;;14.73;;
61013;SDS011;46899;47.542;19.082;2024-02-26T03:35:52;23.02;;;14.95;;
61013;SDS011;46899;47.542;19.082;2024-02-26T03:39:08;20.37;;;14.13;;
61013;SDS011;46899;47.542;19.082;2024-02-26T03:42:25;20.33;;;14.40;;
61013;SDS011;46899;47.542;19.082;2024-02-26T03:45:34;20.92;;;14.20;;
61013;SDS011;46899;47.542;19.082;2024-02-26T03:48:50;23.95;;;15.23;;
61013;SDS011;46899;47.542;19.082;2024-02-26T03:52:02;21.05;;;14.25;;
61013;SDS011;46899;47.542;19.082;2024-02-26T03:55:14;23.30;;;14.75;;
61013;SDS011;46899;47.542;19.082;2024-02-26T03:58:27;21.85;;;14.57;;
61013;SDS011;46899;47.542;19.082;2024-02-26T04:01:31;22.52;;;14.38;;
61013;SDS011;46899;47.542;19.082;2024-02-26T04:04:39;21.70;;;13.45;;
61013;SDS011;46899;47.542;19.082;2024-02-26T04:07:48;19.73;;;13.15;;
61013;SDS011;46899;47.542;19.082;2024-02-26T04:10:54;18.50;;;12.80;;
61013;SDS011;46899;47.542;19.082;2024-02-26T04:14:05;18.25;;;12.63;;
61013;SDS011;46899;47.542;19.082;2024-02-26T04:17:25;19.95;;;12.88;;
61013;SDS011;46899;47.542;19.082;2024-02-26T04:20:40;19.27;;;12.43;;
61013;SDS011;46899;47.542;19.082;2024-02-26T04:23:54;19.90;;;12.40;;
61013;SDS011;46899;47.542;19.082;2024-02-26T04:27:11;20.05;;;12.88;;
61013;SDS011;46899;47.542;19.082;2024-02-26T04:30:24;19.62;;;12.75;;
61013;SDS011;46899;47.542;19.082;2024-02-26T04:33:33;19.65;;;12.32;;
61013;SDS011;46899;47.542;19.082;2024-02-26T04:36:46;18.73;;;12.45;;
61013;SDS011;46899;47.542;19.082;2024-02-26T04:40:01;21.08;;;12.73;;
61013;SDS011;46899;47.542;19.082;2024-02-26T04:43:16;17.80;;;11.25;;
61013;SDS011;46899;47.542;19.082;2024-02-26T04:46:28;18.58;;;12.32;;
61013;SDS011;46899;47.542;19.082;2024-02-26T04:49:45;19.92;;;12.37;;
61013;SDS011;46899;47.542;19.082;2024-02-26T04:52:54;16.58;;;12.00;;
61013;SDS011;46899;47.542;19.082;2024-02-26T04:56:06;18.50;;;12.13;;
61013;SDS011;46899;47.542;19.082;2024-02-26T04:59:18;17.67;;;12.18;;
61013;SDS011;46899;47.542;19.082;2024-02-26T05:02:30;19.60;;;12.37;;
61013;SDS011;46899;47.542;19.082;2024-02-26T05:05:46;18.83;;;11.65;;
61013;SDS011;46899;47.542;19.082;2024-02-26T05:09:00;19.62;;;13.10;;
61013;SDS011;46899;47.542;19.082;2024-02-26T05:12:14;21.60;;;12.32;;
61013;SDS011;46899;47.542;19.082;2024-02-26T05:15:25;16.77;;;11.27;;
61013;SDS011;46899;47.542;19.082;2024-02-26T05:18:34;21.62;;;13.57;;
61013;SDS011;46899;47.542;19.082;2024-02-26T05:21:48;18.48;;;12.65;;
61013;SDS011;46899;47.542;19.082;2024-02-26T05:25:01;17.37;;;12.02;;
61013;SDS011;46899;47.542;19.082;2024-02-26T05:28:16;20.83;;;12.05;;
61013;SDS011;46899;47.542;19.082;2024-02-26T05:31:28;17.70;;;11.77;;
61013;SDS011;46899;47.542;19.082;2024-02-26T05:34:41;17.37;;;12.07;;
61013;SDS011;46899;47.542;19.082;2024-02-26T05:37:51;17.80;;;12.27;;
61013;SDS011;46899;47.542;19.082;2024-02-26T05:41:01;18.70;;;12.35;;
61013;SDS011;46899;47.542;19.082;2024-02-26T05:44:13;22.65;;;13.50;;
61013;SDS011;46899;47.542;19.082;2024-02-26T05:47:23;19.00;;;12.68;;
61013;SDS011;46899;47.542;19.082;2024-02-26T05:50:39;18.73;;;12.15;;
61013;SDS011;46899;47.542;19.082;2024-02-26T05:53:55;21.00;;;12.85;;
61013;SDS011;46899;47.542;19.082;2024-02-26T05:57:05;18.70;;;12.00;;
61013;SDS011;46899;47.542;19.082;2024-02-26T06:00:17;21.05;;;14.00;;
61013;SDS011;46899;47.542;19.082;2024-02-26T06:03:35;20.00;;;12.50;;
61013;SDS011;46899;47.542;19.082;2024-02-26T06:06:48;19.73;;;13.05;;
61013;SDS011;46899;47.542;19.082;2024-02-26T06:10:03;23.12;;;13.10;;
61013;SDS011;46899;47.542;19.082;2024-02-26T06:13:11;21.02;;;13.02;;
61013;SDS011;46899;47.542;19.082;2024-02-26T06:16:23;21.23;;;13.18;;
61013;SDS011;46899;47.542;19.082;2024-02-26T06:19:29;23.60;;;13.80;;
61013;SDS011;46899;47.542;19.082;2024-02-26T06:22:34;25.12;;;13.93;;
61013;SDS011;46899;47.542;19.082;2024-02-26T06:25:45;19.70;;;12.77;;
61013;SDS011;46899;47.542;19.082;2024-02-26T06:29:00;21.45;;;13.50;;
61013;SDS011;46899;47.542;19.082;2024-02-26T06:32:05;22.83;;;13.30;;
61013;SDS011;46899;47.542;19.082;2024-02-26T06:35:11;21.83;;;13.77;;
61013;SDS011;46899;47.542;19.082;2024-02-26T06:38:19;20.52;;;13.18;;
61013;SDS011;46899;47.542;19.082;2024-02-26T06:41:27;18.55;;;12.52;;
61013;SDS011;46899;47.542;19.082;2024-02-26T06:44:41;21.60;;;13.52;;
61013;SDS011;46899;47.542;19.082;2024-02-26T06:47:54;21.25;;;13.05;;
61013;SDS011;46899;47.542;19.082;2024-02-26T06:51:02;19.17;;;12.45;;
61013;SDS011;46899;47.542;19.082;2024-02-26T06:54:14;21.60;;;14.02;;
61013;SDS011;46899;47.542;19.082;2024-02-26T06:57:26;20.00;;;12.30;;
61013;SDS011;46899;47.542;19.082;2024-02-26T07:00:30;18.15;;;12.68;;
61013;SDS011;46899;47.542;19.082;2024-02-26T07:03:37;20.98;;;13.32;;
61013;SDS011;46899;47.542;19.082;2024-02-26T07:06:43;19.40;;;12.60;;
61013;SDS011;46899;47.542;19.082;2024-02-26T07:09:51;20.65;;;13.32;;
61013;SDS011;46899;47.542;19.082;2024-02-26T07:12:59;20.10;;;13.90;;
61013;SDS011;46899;47.542;19.082;2024-02-26T07:16:09;19.35;;;13.05;;
61013;SDS011;46899;47.542;19.082;2024-02-26T07:19:18;24.20;;;14.10;;
61013;SDS011;46899;47.542;19.082;2024-02-26T07:22:21;17.85;;;12.85;;
61013;SDS011;46899;47.542;19.082;2024-02-26T07:25:26;19.77;;;13.62;;
61013;SDS011;46899;47.542;19.082;2024-02-26T07:28:38;18.23;;;13.70;;
61013;SDS011;46899;47.542;19.082;2024-02-26T07:31:47;18.30;;;13.95;;
61013;SDS011;46899;47.542;19.082;2024-02-26T07:34:51;20.13;;;13.50;;
61013;SDS011;46899;47.542;19.082;2024-02-26T07:37:55;19.40;;;13.55;;
61013;SDS011;46899;47.542;19.082;2024-02-26T07:41:03;18.45;;;12.90;;
61013;SDS011;46899;47.542;19.082;2024-02-26T07:44:10;18.65;;;14.10;;
61013;SDS011;46899;47.542;19.082;2024-02-26T07:47:17;21.40;;;15.95;;
61013;SDS011;46899;47.542;19.082;2024-02-26T07:50:30;20.58;;;15.35;;
61013;SDS011;46899;47.542;19.082;2024-02-26T07:53:36;19.35;;;15.40;;
61013;SDS011;46899;47.542;19.082;2024-02-26T08:00:02;22.65;;;16.70;;
61013;SDS011;46899;47.542;19.082;2024-02-26T08:03:17;24.83;;;17.92;;
61013;SDS011;46899;47.542;19.082;2024-02-26T08:06:29;24.02;;;17.92;;
61013;SDS011;46899;47.542;19.082;2024-02-26T08:09:41;24.95;;;17.92;;
61013;SDS011;46899;47.542;19.082;2024-02-26T08:12:52;24.10;;;18.95;;
61013;SDS011;46899;47.542;19.082;2024-02-26T08:15:55;24.05;;;18.02;;
61013;SDS011;46899;47.542;19.082;2024-02-26T08:18:59;23.67;;;17.48;;
61013;SDS011;46899;47.542;19.082;2024-02-26T08:22:07;23.35;;;18.30;;
61013;SDS011;46899;47.542;19.082;2024-02-26T08:25:17;24.30;;;18.27;;
61013;SDS011;46899;47.542;19.082;2024-02-26T08:28:27;22.33;;;18.40;;
61013;SDS011;46899;47.542;19.082;2024-02-26T08:31:34;23.87;;;18.30;;
61013;SDS011;46899;47.542;19.082;2024-02-26T08:34:47;27.02;;;20.60;;
61013;SDS011;46899;47.542;19.082;2024-02-26T08:37:56;26.85;;;20.30;;
61013;SDS011;46899;47.542;19.082;2024-02-26T08:41:05;26.55;;;20.33;;
61013;SDS011;46899;47.542;19.082;2024-02-26T08:44:14;25.55;;;20.10;;
61013;SDS011;46899;47.542;19.082;2024-02-26T08:47:24;24.48;;;20.55;;
61013;SDS011;46899;47.542;19.082;2024-02-26T08:50:28;25.92;;;20.00;;
61013;SDS011;46899;47.542;19.082;2024-02-26T08:53:32;26.30;;;20.05;;
61013;SDS011;46899;47.542;19.082;2024-02-26T08:56:44;27.08;;;20.10;;
61013;SDS011;46899;47.542;19.082;2024-02-26T08:59:51;26.42;;;20.35;;
61013;SDS011;46899;47.542;19.082;2024-02-26T09:02:54;27.80;;;20.70;;
61013;SDS011;46899;47.542;19.082;2024-02-26T09:06:03;28.73;;;21.55;;
61013;SDS011;46899;47.542;19.082;2024-02-26T09:09:06;26.12;;;20.20;;
61013;SDS011;46899;47.542;19.082;2024-02-26T09:12:13;27.13;;;20.67;;
61013;SDS011;46899;47.542;19.082;2024-02-26T09:15:18;27.85;;;21.80;;
61013;SDS011;46899;47.542;19.082;2024-02-26T09:18:25;27.83;;;21.27;;
61013;SDS011;46899;47.542;19.082;2024-02-26T09:21:29;28.80;;;22.00;;
61013;SDS011;46899;47.542;19.082;2024-02-26T09:24:35;33.42;;;23.35;;
61013;SDS011;46899;47.542;19.082;2024-02-26T09:27:39;26.90;;;21.35;;
61013;SDS011;46899;47.542;19.082;2024-02-26T09:30:45;27.50;;;21.60;;
61013;SDS011;46899;47.542;19.082;2024-02-26T09:33:50;27.62;;;21.52;;
61013;SDS011;46899;47.542;19.082;2024-02-26T09:36:54;28.10;;;22.75;;
61013;SDS011;46899;47.542;19.082;2024-02-26T09:40:17;27.00;;;21.75;;
61013;SDS011;46899;47.542;19.082;2024-02-26T09:43:32;27.10;;;20.73;;
61013;SDS011;46899;47.542;19.082;2024-02-26T09:46:46;26.58;;;22.02;;
61013;SDS011;46899;47.542;19.082;2024-02-26T09:50:00;27.15;;;21.60;;
61013;SDS011;46899;47.542;19.082;2024-02-26T09:53:13;26.87;;;21.50;;
61013;SDS011;46899;47.542;19.082;2024-02-26T09:56:24;27.52;;;21.80;;
61013;SDS011;46899;47.542;19.082;2024-02-26T09:59:39;25.25;;;20.80;;
61013;SDS011;46899;47.542;19.082;2024-02-26T10:02:49;28.95;;;23.98;;
61013;SDS011;46899;47.542;19.082;2024-02-26T10:05:57;28.33;;;23.73;;
61013;SDS011;46899;47.542;19.082;2024-02-26T10:09:04;29.77;;;22.83;;
61013;SDS011;46899;47.542;19.082;2024-02-26T10:12:16;28.98;;;23.10;;
61013;SDS011;46899;47.542;19.082;2024-02-26T10:15:24;32.10;;;23.20;;
61013;SDS011;46899;47.542;19.082;2024-02-26T10:18:49;26.80;;;22.30;;
61013;SDS011;46899;47.542;19.082;2024-02-26T10:22:04;28.92;;;21.30;;
61013;SDS011;46899;47.542;19.082;2024-02-26T10:25:10;26.70;;;22.23;;
61013;SDS011;46899;47.542;19.082;2024-02-26T10:28:14;25.20;;;20.25;;
61013;SDS011;46899;47.542;19.082;2024-02-26T10:31:17;26.42;;;20.65;;
61013;SDS011;46899;47.542;19.082;2024-02-26T10:34:27;24.33;;;19.95;;
61013;SDS011;46899;47.542;19.082;2024-02-26T10:37:37;21.75;;;18.55;;
61013;SDS011;46899;47.542;19.082;2024-02-26T10:40:41;21.30;;;18.27;;
61013;SDS011;46899;47.542;19.082;2024-02-26T10:43:48;23.85;;;18.85;;
61013;SDS011;46899;47.542;19.082;2024-02-26T10:46:53;20.03;;;17.77;;
61013;SDS011;46899;47.542;19.082;2024-02-26T10:50:03;22.42;;;17.52;;
61013;SDS011;46899;47.542;19.082;2024-02-26T10:53:17;21.12;;;16.83;;
61013;SDS011;46899;47.542;19.082;2024-02-26T10:56:25;20.35;;;16.27;;
61013;SDS011;46899;47.542;19.082;2024-02-26T10:59:34;19.15;;;16.48;;
61013;SDS011;46899;47.542;19.082;2024-02-26T11:02:46;20.48;;;17.08;;
61013;SDS011;46899;47.542;19.082;2024-02-26T11:05:54;21.85;;;17.05;;
61013;SDS011;46899;47.542;19.082;2024-02-26T11:09:03;19.27;;;14.25;;
61013;SDS011;46899;47.542;19.082;2024-02-26T11:12:10;17.42;;;14.77;;
61013;SDS011;46899;47.542;19.082;2024-02-26T11:15:15;16.62;;;14.70;;
61013;SDS011;46899;47.542;19.082;2024-02-26T11:18:22;19.30;;;16.15;;
61013;SDS011;46899;47.542;19.082;2024-02-26T11:21:28;19.83;;;16.95;;
61013;SDS011;46899;47.542;19.082;2024-02-26T11:24:47;18.10;;;14.77;;
61013;SDS011;46899;47.542;19.082;2024-02-26T11:27:53;19.23;;;15.53;;
61013;SDS011;46899;47.542;19.082;2024-02-26T11:31:04;18.50;;;15.00;;
61013;SDS011;46899;47.542;19.082;2024-02-26T11:34:13;17.30;;;14.85;;
61013;SDS011;46899;47.542;19.082;2024-02-26T11:37:17;16.17;;;13.65;;
61013;SDS011;46899;47.542;19.082;2024-02-26T11:40:24;13.07;;;11.63;;
61013;SDS011;46899;47.542;19.082;2024-02-26T11:46:56;15.52;;;12.70;;
61013;SDS011;46899;47.542;19.082;2024-02-26T11:50:01;15.70;;;12.95;;
61013;SDS011;46899;47.542;19.082;2024-02-26T11:53:46;17.50;;;12.32;;
61013;SDS011;46899;47.542;19.082;2024-02-26T11:56:52;17.35;;;12.75;;
61013;SDS011;46899;47.542;19.082;2024-02-26T12:03:11;14.00;;;9.98;;
61013;SDS011;46899;47.542;19.082;2024-02-26T12:06:17;13.45;;;9.45;;
61013;SDS011;46899;47.542;19.082;2024-02-26T12:09:32;11.55;;;8.13;;
61013;SDS011;46899;47.542;19.082;2024-02-26T12:12:46;11.73;;;9.23;;
61013;SDS011;46899;47.542;19.082;2024-02-26T12:15:56;11.23;;;9.52;;
61013;SDS011;46899;47.542;19.082;2024-02-26T12:19:05;17.10;;;9.25;;
61013;SDS011;46899;47.542;19.082;2024-02-26T12:22:15;12.10;;;10.23;;
61013;SDS011;46899;47.542;19.082;2024-02-26T12:25:21;11.00;;;9.52;;
61013;SDS011;46899;47.542;19.082;2024-02-26T12:28:30;12.18;;;9.73;;
61013;SDS011;46899;47.542;19.082;2024-02-26T12:31:34;11.43;;;9.68;;
61013;SDS011;46899;47.542;19.082;2024-02-26T12:34:39;11.05;;;9.18;;
61013;SDS011;46899;47.542;19.082;2024-02-26T12:37:43;10.25;;;8.45;;
61013;SDS011;46899;47.542;19.082;2024-02-26T12:40:49;12.43;;;7.57;;
61013;SDS011;46899;47.542;19.082;2024-02-26T12:43:57;9.20;;;7.55;;
61013;SDS011;46899;47.542;19.082;2024-02-26T12:47:06;12.37;;;7.50;;
61013;SDS011;46899;47.542;19.082;2024-02-26T12:50:13;8.40;;;7.28;;
61013;SDS011;46899;47.542;19.082;2024-02-26T12:53:22;9.75;;;7.32;;
61013;SDS011;46899;47.542;19.082;2024-02-26T12:56:34;11.65;;;8.50;;
61013;SDS011;46899;47.542;19.082;2024-02-26T12:59:42;11.80;;;8.43;;
61013;SDS011;46899;47.542;19.082;2024-02-26T13:02:51;10.30;;;7.55;;
61013;SDS011;46899;47.542;19.082;2024-02-26T13:06:03;8.30;;;7.37;;
61013;SDS011;46899;47.542;19.082;2024-02-26T13:09:14;13.25;;;7.55;;
61013;SDS011;46899;47.542;19.082;2024-02-26T13:12:21;8.45;;;6.80;;
61013;SDS011;46899;47.542;19.082;2024-02-26T13:15:27;9.52;;;6.37;;
61013;SDS011;46899;47.542;19.082;2024-02-26T13:18:34;8.20;;;6.18;;
61013;SDS011;46899;47.542;19.082;2024-02-26T13:21:40;7.12;;;5.87;;
61013;SDS011;46899;47.542;19.082;2024-02-26T13:24:44;8.98;;;5.70;;
61013;SDS011;46899;47.542;19.082;2024-02-26T13:28:13;8.93;;;5.62;;
61013;SDS011;46899;47.542;19.082;2024-02-26T13:31:21;8.37;;;5.67;;
61013;SDS011;46899;47.542;19.082;2024-02-26T13:34:25;7.45;;;6.10;;
61013;SDS011;46899;47.542;19.082;2024-02-26T13:37:34;8.32;;;5.70;;
61013;SDS011;46899;47.542;19.082;2024-02-26T13:40:48;7.40;;;5.43;;
61013;SDS011;46899;47.542;19.082;2024-02-26T13:44:03;6.32;;;5.03;;
61013;SDS011;46899;47.542;19.082;2024-02-26T13:47:11;9.73;;;7.72;;
61013;SDS011;46899;47.542;19.082;2024-02-26T13:50:20;10.20;;;7.87;;
61013;SDS011;46899;47.542;19.082;2024-02-26T13:53:31;9.95;;;6.78;;
61013;SDS011;46899;47.542;19.082;2024-02-26T13:56:39;7.20;;;6.00;;
61013;SDS011;46899;47.542;19.082;2024-02-26T13:59:52;6.95;;;5.72;;
61013;SDS011;46899;47.542;19.082;2024-02-26T14:03:00;9.48;;;6.65;;
61013;SDS011;46899;47.542;19.082;2024-02-26T14:06:04;7.22;;;6.10;;
61013;SDS011;46899;47.542;19.082;2024-02-26T14:09:07;7.15;;;5.32;;
61013;SDS011;46899;47.542;19.082;2024-02-26T14:12:12;9.07;;;6.07;;
61013;SDS011;46899;47.542;19.082;2024-02-26T14:15:19;10.77;;;5.50;;
61013;SDS011;46899;47.542;19.082;2024-02-26T14:18:29;7.18;;;6.32;;
61013;SDS011;46899;47.542;19.082;2024-02-26T14:21:34;7.85;;;6.50;;
61013;SDS011;46899;47.542;19.082;2024-02-26T14:24:44;10.27;;;7.07;;
61013;SDS011;46899;47.542;19.082;2024-02-26T14:28:07;8.27;;;7.20;;
61013;SDS011;46899;47.542;19.082;2024-02-26T14:31:31;8.60;;;7.70;;
61013;SDS011;46899;47.542;19.082;2024-02-26T14:34:43;13.85;;;9.13;;
61013;SDS011;46899;47.542;19.082;2024-02-26T14:37:47;9.38;;;8.30;;
61013;SDS011;46899;47.542;19.082;2024-02-26T14:40:52;11.50;;;9.35;;
61013;SDS011;46899;47.542;19.082;2024-02-26T14:44:02;11.15;;;9.52;;
61013;SDS011;46899;47.542;19.082;2024-02-26T14:47:16;11.05;;;9.48;;
61013;SDS011;46899;47.542;19.082;2024-02-26T14:50:27;11.70;;;9.50;;
61013;SDS011;46899;47.542;19.082;2024-02-26T14:53:37;11.52;;;9.90;;
61013;SDS011;46899;47.542;19.082;2024-02-26T14:56:51;10.43;;;9.15;;
61013;SDS011;46899;47.542;19.082;2024-02-26T15:00:01;14.30;;;9.95;;
61013;SDS011;46899;47.542;19.082;2024-02-26T15:03:11;11.70;;;8.90;;
61013;SDS011;46899;47.542;19.082;2024-02-26T15:06:22;11.30;;;8.65;;
61013;SDS011;46899;47.542;19.082;2024-02-26T15:09:33;11.12;;;9.32;;
61013;SDS011;46899;47.542;19.082;2024-02-26T15:12:41;12.07;;;9.07;;
61013;SDS011;46899;47.542;19.082;2024-02-26T15:15:51;12.37;;;10.00;;
61013;SDS011;46899;47.542;19.082;2024-02-26T15:19:01;10.90;;;9.40;;
61013;SDS011;46899;47.542;19.082;2024-02-26T15:22:14;11.07;;;8.63;;
61013;SDS011;46899;47.542;19.082;2024-02-26T15:25:25;14.05;;;12.55;;
61013;SDS011;46899;47.542;19.082;2024-02-26T15:28:33;16.87;;;13.15;;
61013;SDS011;46899;47.542;19.082;2024-02-26T15:31:46;13.93;;;12.13;;
61013;SDS011;46899;47.542;19.082;2024-02-26T15:34:58;14.90;;;13.07;;
61013;SDS011;46899;47.542;19.082;2024-02-26T15:38:12;15.55;;;12.15;;
61013;SDS011;46899;47.542;19.082;2024-02-26T15:41:18;12.68;;;10.95;;
61013;SDS011;46899;47.542;19.082;2024-02-26T15:44:29;14.13;;;11.65;;
61013;SDS011;46899;47.542;19.082;2024-02-26T15:47:43;12.95;;;11.07;;
61013;SDS011;46899;47.542;19.082;2024-02-26T15:50:56;15.45;;;11.18;;
61013;SDS011;46899;47.542;19.082;2024-02-26T15:54:07;12.25;;;10.40;;
61013;SDS011;46899;47.542;19.082;2024-02-26T15:57:16;14.23;;;10.48;;
61013;SDS011;46899;47.542;19.082;2024-02-26T16:00:25;12.37;;;9.88;;
61013;SDS011;46899;47.542;19.082;2024-02-26T16:03:37;12.68;;;9.88;;
61013;SDS011;46899;47.542;19.082;2024-02-26T16:06:44;12.23;;;9.52;;
61013;SDS011;46899;47.542;19.082;2024-02-26T16:09:55;11.57;;;9.13;;
61013;SDS011;46899;47.542;19.082;2024-02-26T16:13:00;11.48;;;9.63;;
61013;SDS011;46899;47.542;19.082;2024-02-26T16:16:14;12.50;;;9.63;;
61013;SDS011;46899;47.542;19.082;2024-02-26T16:19:24;11.48;;;8.85;;
61013;SDS011;46899;47.542;19.082;2024-02-26T16:22:31;11.52;;;8.98;;
61013;SDS011;46899;47.542;19.082;2024-02-26T16:25:47;11.93;;;9.02;;
61013;SDS011;46899;47.542;19.082;2024-02-26T16:29:01;13.07;;;10.02;;
61013;SDS011;46899;47.542;19.082;2024-02-26T16:32:11;14.43;;;9.32;;
61013;SDS011;46899;47.542;19.082;2024-02-26T16:35:19;12.85;;;9.65;;
61013;SDS011;46899;47.542;19.082;2024-02-26T16:38:26;14.40;;;9.98;;
61013;SDS011;46899;47.542;19.082;2024-02-26T16:41:38;13.15;;;10.48;;
61013;SDS011;46899;47.542;19.082;2024-02-26T16:44:49;13.27;;;9.68;;
61013;SDS011;46899;47.542;19.082;2024-02-26T16:47:53;15.13;;;11.07;;
61013;SDS011;46899;47.542;19.082;2024-02-26T16:51:01;15.15;;;10.98;;
61013;SDS011;46899;47.542;19.082;2024-02-26T16:54:14;13.85;;;10.35;;
61013;SDS011;46899;47.542;19.082;2024-02-26T16:57:25;13.80;;;10.40;;
61013;SDS011;46899;47.542;19.082;2024-02-26T17:00:37;14.45;;;11.15;;
61013;SDS011;46899;47.542;19.082;2024-02-26T17:03:46;13.57;;;10.70;;
61013;SDS011;46899;47.542;19.082;2024-02-26T17:06:59;17.00;;;10.65;;
61013;SDS011;46899;47.542;19.082;2024-02-26T17:10:09;18.75;;;11.18;;
61013;SDS011;46899;47.542;19.082;2024-02-26T17:13:21;16.60;;;11.20;;
61013;SDS011;46899;47.542;19.082;2024-02-26T17:16:28;18.12;;;11.20;;
61013;SDS011;46899;47.542;19.082;2024-02-26T17:19:43;21.48;;;12.55;;
61013;SDS011;46899;47.542;19.082;2024-02-26T17:22:54;22.48;;;13.07;;
61013;SDS011;46899;47.542;19.082;2024-02-26T17:26:04;20.40;;;12.88;;
61013;SDS011;46899;47.542;19.082;2024-02-26T17:29:17;23.10;;;13.68;;
61013;SDS011;46899;47.542;19.082;2024-02-26T17:32:28;32.22;;;14.70;;
61013;SDS011;46899;47.542;19.082;2024-02-26T17:35:38;21.55;;;13.52;;
61013;SDS011;46899;47.542;19.082;2024-02-26T17:38:49;18.77;;;13.88;;
61013;SDS011;46899;47.542;19.082;2024-02-26T17:42:01;21.42;;;14.10;;
61013;SDS011;46899;47.542;19.082;2024-02-26T17:45:13;24.10;;;13.40;;
61013;SDS011;46899;47.542;19.082;2024-02-26T17:48:21;20.02;;;13.77;;
61013;SDS011;46899;47.542;19.082;2024-02-26T17:51:35;21.98;;;14.60;;
61013;SDS011;46899;47.542;19.082;2024-02-26T17:54:44;20.92;;;13.95;;
61013;SDS011;46899;47.542;19.082;2024-02-26T17:57:52;21.50;;;14.82;;
61013;SDS011;46899;47.542;19.082;2024-02-26T18:00:57;22.20;;;15.35;;
61013;SDS011;46899;47.542;19.082;2024-02-26T18:04:08;22.02;;;15.65;;
61013;SDS011;46899;47.542;19.082;2024-02-26T18:07:17;23.17;;;14.80;;
61013;SDS011;46899;47.542;19.082;2024-02-26T18:10:27;23.87;;;15.93;;
61013;SDS011;46899;47.542;19.082;2024-02-26T18:13:41;28.55;;;16.42;;
61013;SDS011;46899;47.542;19.082;2024-02-26T18:16:53;28.98;;;16.40;;
61013;SDS011;46899;47.542;19.082;2024-02-26T18:20:03;22.50;;;14.48;;
61013;SDS011;46899;47.542;19.082;2024-02-26T18:23:15;22.60;;;15.07;;
61013;SDS011;46899;47.542;19.082;2024-02-26T18:26:22;24.48;;;15.57;;
61013;SDS011;46899;47.542;19.082;2024-02-26T18:29:37;19.40;;;14.85;;
61013;SDS011;46899;47.542;19.082;2024-02-26T18:32:48;18.70;;;14.45;;
61013;SDS011;46899;47.542;19.082;2024-02-26T18:35:58;26.62;;;14.45;;
61013;SDS011;46899;47.542;19.082;2024-02-26T18:39:07;21.05;;;14.52;;